Terminal Aerodrome Forecast
Issued by NWS Jackson, MS

Home | Current Version | Previous Version | Text Only | Print | Product List | Glossary On
Versions: 1 2 3 4 5 6 7 8 9 10 11 12 13 14 15
000
FTUS44 KJAN 312300
TAFGLH
TAF
KGLH 312328Z 0100/0124 12008KT P6SM BKN120
     FM010900 16012KT P6SM -SHRA OVC030
     FM011400 20018KT 3SM -SHRA OVC010
     FM012200 29020G30KT P6SM OVC025=

USA.gov is the U.S. government's official web portal to all federal, state and local government web resources and services.